»·PEaware :: DAL7150 KLAS-KLAX

DAL7150 :: KLAS-KLAX

FLIGHT INFORMATION

Flight Status: Arrived
Operator:
Delta Air Lines
More flights by this operator :: More flights under this callsign
Pilot: John H. (20300)
Aircraft: AIRBUS A320
(A320)
More flights by this aircraft type
Origin: KLAS McCarran Intl
United States
Destination: KLAX Los Angeles Intl
United States
More flights between these airports :: More routes between these airports
Route: +BOACH8 RIKII SHTNR ANJLL1
File this flight plan on PilotEdge
Remarks:
Altitude:
(Current/Filed)
260ft
Speed:
(Current/Filed)
320kts
Departed: 23-Sep-18 11:38 AM
Arrived: 23-Sep-18 12:24 PM
Distance/Time
Traveled:
205nm/0:46
Distance/Time
To Go:
Arrived

Flight Plot

Page will automatically refresh every two minutes.

Flight plan parsing failed; only flown route is shown


Map Options




Map Legend


Flown Route
Filed Route
Departure Airport
Arrival Airport
Navaid (VOR, NDB)
Fix

Horizontal Profiles

Position Reports

Time Latitude Longitude Heading Altitude Ground
Speed
23-Sep-18 11:07 36.079627 -115.146283 346 2195ft 0kts
23-Sep-18 11:08 36.079627 -115.146284 346 2195ft 0kts
23-Sep-18 11:09 36.079627 -115.146284 346 2195ft 0kts
23-Sep-18 11:10 36.079627 -115.146284 346 2195ft 0kts
23-Sep-18 11:11 36.079628 -115.146284 346 2195ft 0kts
23-Sep-18 11:12 36.079387 -115.146216 346 2195ft 2kts
23-Sep-18 11:15 36.086697 -115.153742 114 2195ft 0kts
23-Sep-18 11:16 36.086697 -115.153741 114 2195ft 0kts
23-Sep-18 11:17 36.086697 -115.153741 114 2195ft 0kts
23-Sep-18 11:18 36.086940 -115.154400 114 2195ft 2kts
23-Sep-18 11:19 36.087044 -115.154680 114 2195ft 0kts
23-Sep-18 11:20 36.086784 -115.154797 236 2195ft 3kts
23-Sep-18 11:21 36.086604 -115.155138 235 2195ft 0kts
23-Sep-18 11:22 36.086604 -115.155138 235 2195ft 0kts
23-Sep-18 11:23 36.086604 -115.155138 235 2195ft 0kts
23-Sep-18 11:24 36.086303 -115.155353 200 2195ft 0kts
23-Sep-18 11:25 36.086301 -115.155353 200 2195ft 0kts
23-Sep-18 11:26 36.086300 -115.155354 200 2195ft 0kts
23-Sep-18 11:27 36.085106 -115.156022 206 2195ft 0kts
23-Sep-18 11:28 36.086513 -115.157828 335 2195ft 26kts
23-Sep-18 11:29 36.095697 -115.153102 24 2195ft 40kts
23-Sep-18 11:30 36.096901 -115.152952 272 2195ft 0kts
23-Sep-18 11:31 36.096901 -115.152952 272 2195ft 0kts
23-Sep-18 11:32 36.096901 -115.152953 272 2195ft 0kts
23-Sep-18 11:33 36.096901 -115.152953 272 2195ft 0kts
23-Sep-18 11:34 36.096901 -115.152954 272 2195ft 0kts
23-Sep-18 11:35 36.096901 -115.152954 272 2195ft 0kts
23-Sep-18 11:36 36.096901 -115.152954 272 2195ft 0kts
23-Sep-18 11:37 36.096901 -115.152955 272 2195ft 0kts
23-Sep-18 11:38 36.096901 -115.152955 272 2195ft 0kts
23-Sep-18 11:39 36.096917 -115.153248 274 2195ft 9kts
23-Sep-18 11:40 36.086711 -115.160305 206 2195ft 145kts
23-Sep-18 11:41 36.042604 -115.186460 209 4567ft 182kts
23-Sep-18 11:42 35.995079 -115.209191 206 6956ft 192kts
23-Sep-18 11:43 35.966347 -115.276912 260 7063ft 256kts
23-Sep-18 11:44 35.914199 -115.328340 177 7409ft 277kts
23-Sep-18 11:45 35.836318 -115.312163 178 9427ft 286kts
23-Sep-18 11:46 35.753404 -115.303309 178 11445ft 323kts
23-Sep-18 11:47 35.658306 -115.295019 184 13056ft 354kts
23-Sep-18 11:48 35.559903 -115.299448 185 13058ft 353kts
23-Sep-18 11:49 35.467754 -115.327669 214 13060ft 342kts
23-Sep-18 11:50 35.385763 -115.389052 213 14569ft 349kts
23-Sep-18 11:51 35.300886 -115.450424 213 16574ft 360kts
23-Sep-18 11:52 35.213451 -115.513764 213 18586ft 371kts
23-Sep-18 11:53 35.124901 -115.579107 221 21073ft 367kts
23-Sep-18 11:54 35.054793 -115.667873 229 23052ft 366kts
23-Sep-18 11:55 34.984373 -115.757957 228 23726ft 369kts
23-Sep-18 11:56 34.914459 -115.847330 228 25948ft 364kts
23-Sep-18 11:57 34.840028 -115.942383 228 26052ft 413kts
23-Sep-18 11:58 34.757100 -116.047736 228 26051ft 440kts
23-Sep-18 11:59 34.672450 -116.154972 228 26051ft 440kts
23-Sep-18 12:00 34.587686 -116.262045 227 26051ft 440kts
23-Sep-18 12:01 34.503537 -116.368217 228 25275ft 423kts
23-Sep-18 12:02 34.422011 -116.471487 232 24022ft 425kts
23-Sep-18 12:03 34.367618 -116.597138 245 24022ft 422kts
23-Sep-18 12:04 34.315631 -116.722954 245 22228ft 408kts
23-Sep-18 12:05 34.267470 -116.843723 245 19415ft 391kts
23-Sep-18 12:06 34.220399 -116.960052 245 17091ft 379kts
23-Sep-18 12:07 34.185745 -117.076814 253 16980ft 337kts
23-Sep-18 12:08 34.159260 -117.174557 252 15611ft 289kts
23-Sep-18 12:09 34.134059 -117.266170 252 14019ft 284kts
23-Sep-18 12:10 34.109251 -117.356047 252 13639ft 277kts
23-Sep-18 12:11 34.086649 -117.444833 254 12030ft 275kts
23-Sep-18 12:12 34.061317 -117.532338 247 11997ft 276kts
23-Sep-18 12:13 34.030722 -117.616511 247 11429ft 274kts
23-Sep-18 12:14 34.004676 -117.701268 262 10016ft 267kts
23-Sep-18 12:15 33.996747 -117.787326 263 9362ft 238kts
23-Sep-18 12:16 33.989475 -117.861362 263 7924ft 230kts
23-Sep-18 12:17 33.981865 -117.938050 264 5854ft 226kts
23-Sep-18 12:18 33.974527 -118.012812 265 3869ft 224kts
23-Sep-18 12:19 33.967855 -118.079690 265 3589ft 184kts
23-Sep-18 12:20 33.961937 -118.139632 264 2588ft 184kts
23-Sep-18 12:21 33.956176 -118.196835 264 1895ft 148kts
23-Sep-18 12:22 33.951491 -118.243362 264 1902ft 137kts
23-Sep-18 12:23 33.946763 -118.290379 265 2225ft 148kts
23-Sep-18 12:24 33.942243 -118.337305 264 1051ft 139kts
23-Sep-18 12:25 33.937515 -118.383600 262 168ft 138kts
23-Sep-18 12:26 33.935160 -118.407133 289 140ft 19kts
23-Sep-18 12:27 33.935608 -118.407397 347 140ft 0kts
23-Sep-18 12:28 33.937628 -118.407631 357 140ft 12kts
23-Sep-18 12:29 33.939283 -118.407356 343 140ft 4kts
23-Sep-18 12:30 33.939964 -118.407154 33 140ft 0kts

Navigation Log

Ident Type
Flight plan parsing failed, navigation log unavailable